LZSL METAR and TAF | Updated Today

LZSL METAR

Sliač Airport

Sliač Airport (LZSL) hasn't published a METAR.
We found the following current weather conditions for Tri Duby from other sources.

Sliač Airport (LZSL) METAR

  • Weather conditions right now at LZSL:
  • Present conditions: Clouds
  • Clouds: Overcast clouds
  • Cloud cover: 98%
  • Wind: 226 at 3kts
  • Temperature: 20.2 celsius
  • Feels like: 19.4 celsius
  • Pressure: 1023mb
  • Humidity: 45%


Useful to know...

LZSL TAF

Sliač Airport

TAF LZSL 200430Z 2006/2018 VRB03KT CAVOK BECMG 2010/2012 21006KT
Observation time: 3:21 hr. ago
Need help? Read our tutorial on how to read TAFs or read the parsed version below.

Parsed version of TAF for Sliač Airport (LZSL)

  • From 20 May at 06:00 UTC, to day 20 of the month at 18:00 UTC
  • Visibility: Greater than 10 km
  • Wind: Variable at 3
  • Expected to arise soon, from 20 May at 10:00 UTC, to day 20 of the month at 12:00 UTC
  • Wind: 210 degrees at 6

Airports near LZSL

LZLU Weather
Region: Lučenec

Lučenec Airport

Not found in our database
LZZI Weather
IATA: ILZ
Region: Žilina

Žilina Airport

Found in our database